Time;durP1;ratioP1;P1;durP2;ratioP2;P2;SDS_P1;SDS_P2;PMS_P1;PMS_P2;Temp;Humidity;BMP_temperature;BMP_pressure;BME280_temperature;BME280_humidity;BME280_pressure;Samples;Min_cycle;Max_cycle;Signal;HPM_P1;HPM_P2
2022/04/21 00:00:48;;;;;;;0.00;0.00;;;;;;;;;;1735113;28;20235;-66
2022/04/21 00:01:40;;;;;;;0.00;0.00;;;;;;;;;;1738949;28;20218;-66
2022/04/21 00:02:32;;;;;;;0.00;0.00;;;;;;;;;;1738534;28;20194;-68
2022/04/21 00:03:23;;;;;;;0.00;0.00;;;;;;;;;;1739191;28;20207;-67
2022/04/21 00:04:16;;;;;;;0.00;0.00;;;;;;;;;;1739298;28;20207;-67
2022/04/21 00:05:07;;;;;;;0.00;0.00;;;;;;;;;;1738860;28;20633;-66
2022/04/21 00:05:59;;;;;;;0.00;0.00;;;;;;;;;;1736385;28;20767;-67
2022/04/21 00:06:51;;;;;;;0.00;0.00;;;;;;;;;;1737935;28;20242;-66
2022/04/21 00:07:47;;;;;;;0.00;0.00;;;;;;;;;;1739141;28;20750;-67
2022/04/21 00:08:38;;;;;;;0.00;0.00;;;;;;;;;;1736855;28;20202;-66
2022/04/21 00:09:30;;;;;;;0.00;0.00;;;;;;;;;;1739327;28;20285;-67
2022/04/21 00:10:22;;;;;;;0.00;0.00;;;;;;;;;;1736926;28;20462;-70
2022/04/21 00:11:14;;;;;;;0.00;0.00;;;;;;;;;;1738997;28;20196;-68
2022/04/21 00:12:06;;;;;;;0.00;0.00;;;;;;;;;;1738706;28;20207;-67
2022/04/21 00:12:58;;;;;;;0.10;0.10;;;;;;;;;;1738624;28;20195;-66
2022/04/21 00:13:49;;;;;;;0.00;0.00;;;;;;;;;;1739248;28;20689;-66
2022/04/21 00:14:41;;;;;;;0.00;0.00;;;;;;;;;;1738452;28;20952;-66
2022/04/21 00:15:34;;;;;;;0.00;0.00;;;;;;;;;;1736335;28;20239;-66
2022/04/21 00:16:26;;;;;;;0.00;0.00;;;;;;;;;;1738333;28;20265;-66
2022/04/21 00:17:17;;;;;;;0.00;0.00;;;;;;;;;;1742123;28;20233;-68
2022/04/21 00:18:10;;;;;;;0.00;0.00;;;;;;;;;;1745936;28;20206;-68
2022/04/21 00:19:01;;;;;;;0.10;0.10;;;;;;;;;;1743127;28;20218;-67
2022/04/21 00:19:53;;;;;;;0.00;0.00;;;;;;;;;;1745607;28;20674;-67
2022/04/21 00:20:44;;;;;;;0.00;0.00;;;;;;;;;;1743128;28;20891;-67
2022/04/21 00:23:52;;;;;;;0.00;0.00;;;;;;;;;;1745891;28;20584;-67
2022/04/21 00:24:43;;;;;;;0.00;0.00;;;;;;;;;;1744476;28;20912;-67
2022/04/21 00:25:35;;;;;;;0.00;0.00;;;;;;;;;;1742072;28;20246;-67
2022/04/21 00:26:27;;;;;;;0.00;0.00;;;;;;;;;;1745710;28;20202;-68
2022/04/21 00:27:19;;;;;;;0.00;0.00;;;;;;;;;;1745395;28;20209;-67
2022/04/21 00:28:10;;;;;;;0.00;0.00;;;;;;;;;;1745956;28;20213;-67
2022/04/21 00:29:02;;;;;;;0.00;0.00;;;;;;;;;;1745230;28;20235;-67
2022/04/21 00:29:54;;;;;;;0.00;0.00;;;;;;;;;;1745667;28;20245;-67
2022/04/21 00:30:47;;;;;;;0.00;0.00;;;;;;;;;;1742133;28;20229;-67
2022/04/21 00:31:38;;;;;;;0.00;0.00;;;;;;;;;;1745742;28;20202;-67
2022/04/21 00:32:30;;;;;;;0.00;0.00;;;;;;;;;;1745523;28;20730;-66
2022/04/21 00:33:22;;;;;;;0.00;0.00;;;;;;;;;;1746066;28;20206;-67
2022/04/21 00:34:13;;;;;;;0.00;0.00;;;;;;;;;;1745361;28;20213;-67
2022/04/21 00:35:06;;;;;;;0.00;0.00;;;;;;;;;;1745861;28;20202;-68
2022/04/21 00:35:58;;;;;;;0.00;0.00;;;;;;;;;;1743149;28;20222;-66
2022/04/21 00:36:49;;;;;;;0.00;0.00;;;;;;;;;;1745275;28;20227;-67
2022/04/21 00:37:44;;;;;;;0.00;0.00;;;;;;;;;;1744825;28;20206;-67
2022/04/21 00:38:36;;;;;;;0.00;0.00;;;;;;;;;;1745885;28;20198;-66
2022/04/21 00:39:28;;;;;;;0.00;0.00;;;;;;;;;;1745956;28;20205;-67
2022/04/21 00:40:19;;;;;;;0.00;0.00;;;;;;;;;;1743499;28;20209;-66
2022/04/21 00:41:12;;;;;;;0.00;0.00;;;;;;;;;;1744596;28;20198;-67
2022/04/21 00:42:03;;;;;;;0.00;0.00;;;;;;;;;;1746072;28;20337;-66
2022/04/21 00:42:58;;;;;;;0.00;0.00;;;;;;;;;;1744680;28;20194;-66
2022/04/21 00:43:49;;;;;;;0.00;0.00;;;;;;;;;;1745636;28;20210;-67
2022/04/21 00:44:41;;;;;;;0.00;0.00;;;;;;;;;;1745789;28;20248;-66
2022/04/21 00:45:33;;;;;;;0.00;0.00;;;;;;;;;;1743744;28;20238;-66
2022/04/21 00:46:27;;;;;;;0.00;0.00;;;;;;;;;;1744804;28;20561;-66
2022/04/21 00:47:20;;;;;;;0.00;0.00;;;;;;;;;;1745330;28;20218;-67
2022/04/21 00:48:13;;;;;;;0.00;0.00;;;;;;;;;;1742216;28;20202;-66
2022/04/21 00:49:04;;;;;;;0.00;0.00;;;;;;;;;;1744064;28;20741;-66
2022/04/21 00:49:57;;;;;;;0.00;0.00;;;;;;;;;;1744787;28;20255;-67
2022/04/21 00:50:48;;;;;;;0.00;0.00;;;;;;;;;;1743157;28;20234;-66
2022/04/21 00:51:41;;;;;;;0.00;0.00;;;;;;;;;;1745676;28;20198;-67
2022/04/21 00:52:32;;;;;;;0.00;0.00;;;;;;;;;;1745230;28;20202;-67
2022/04/21 00:53:24;;;;;;;0.00;0.00;;;;;;;;;;1745539;28;20298;-67
2022/04/21 00:54:15;;;;;;;0.00;0.00;;;;;;;;;;1743702;28;20569;-67
2022/04/21 00:55:08;;;;;;;0.00;0.00;;;;;;;;;;1743676;28;20525;-66
2022/04/21 00:56:01;;;;;;;0.00;0.00;;;;;;;;;;1742719;28;20704;-66
2022/04/21 00:56:54;;;;;;;0.00;0.00;;;;;;;;;;1746309;28;20222;-67
2022/04/21 00:57:46;;;;;;;0.00;0.00;;;;;;;;;;1744935;28;20682;-66
2022/04/21 00:58:39;;;;;;;0.00;0.00;;;;;;;;;;1745005;28;20226;-67
2022/04/21 00:59:30;;;;;;;0.00;0.00;;;;;;;;;;1745649;28;20202;-67
2022/04/21 01:00:23;;;;;;;0.00;0.00;;;;;;;;;;1743026;28;20242;-66
2022/04/21 01:03:32;;;;;;;0.00;0.00;;;;;;;;;;1744157;28;20256;-67
2022/04/21 01:04:25;;;;;;;0.00;0.00;;;;;;;;;;1744231;28;20232;-67
2022/04/21 01:05:16;;;;;;;0.05;0.05;;;;;;;;;;1743796;28;20217;-66
2022/04/21 01:06:09;;;;;;;0.00;0.00;;;;;;;;;;1743080;28;20233;-66
2022/04/21 01:07:00;;;;;;;0.00;0.00;;;;;;;;;;1745793;28;20225;-67
2022/04/21 01:07:52;;;;;;;0.00;0.00;;;;;;;;;;1743698;28;20293;-66
2022/04/21 01:08:44;;;;;;;0.00;0.00;;;;;;;;;;1741144;28;20694;-66
2022/04/21 01:09:36;;;;;;;0.00;0.00;;;;;;;;;;1744999;28;20194;-66
2022/04/21 01:10:28;;;;;;;0.00;0.00;;;;;;;;;;1740175;28;20729;-66
2022/04/21 01:11:21;;;;;;;0.00;0.00;;;;;;;;;;1744843;28;20251;-66
2022/04/21 01:12:14;;;;;;;0.00;0.00;;;;;;;;;;1745833;28;20286;-66
2022/04/21 01:13:06;;;;;;;0.00;0.00;;;;;;;;;;1743522;28;20213;-66
2022/04/21 01:13:57;;;;;;;0.00;0.00;;;;;;;;;;1743497;28;20592;-66
2022/04/21 01:14:49;;;;;;;0.00;0.00;;;;;;;;;;1745548;28;20612;-66
2022/04/21 01:15:42;;;;;;;0.00;0.00;;;;;;;;;;1741590;28;20230;-66
2022/04/21 01:16:33;;;;;;;0.00;0.00;;;;;;;;;;1744874;28;20313;-66
2022/04/21 01:17:32;;;;;;;0.00;0.00;;;;;;;;;;1740110;28;20241;-66
2022/04/21 01:18:27;;;;;;;0.00;0.00;;;;;;;;;;1735635;28;20286;-66
2022/04/21 01:19:19;;;;;;;0.00;0.00;;;;;;;;;;1736027;28;20237;-66
2022/04/21 01:20:11;;;;;;;0.00;0.00;;;;;;;;;;1735947;28;20746;-66
2022/04/21 01:21:05;;;;;;;0.00;0.00;;;;;;;;;;1736043;28;20244;-66
2022/04/21 01:21:56;;;;;;;0.00;0.00;;;;;;;;;;1739658;28;20340;-67
2022/04/21 01:22:49;;;;;;;0.00;0.00;;;;;;;;;;1738075;28;20206;-66
2022/04/21 01:23:40;;;;;;;0.00;0.00;;;;;;;;;;1738304;28;20199;-66
2022/04/21 01:24:32;;;;;;;0.00;0.00;;;;;;;;;;1738437;28;20303;-66
2022/04/21 01:25:23;;;;;;;0.00;0.00;;;;;;;;;;1735845;28;20447;-66
2022/04/21 01:26:16;;;;;;;0.00;0.00;;;;;;;;;;1738047;28;20205;-66
2022/04/21 01:27:07;;;;;;;0.00;0.00;;;;;;;;;;1739220;28;20221;-66
2022/04/21 01:28:00;;;;;;;0.00;0.00;;;;;;;;;;1738796;28;20199;-66
2022/04/21 01:28:52;;;;;;;0.00;0.00;;;;;;;;;;1738617;28;20206;-66
2022/04/21 01:29:44;;;;;;;0.00;0.00;;;;;;;;;;1738630;28;20207;-66
2022/04/21 01:30:35;;;;;;;0.00;0.00;;;;;;;;;;1735201;28;20640;-66
2022/04/21 01:31:27;;;;;;;0.00;0.00;;;;;;;;;;1735501;28;20195;-66
2022/04/21 01:32:18;;;;;;;0.00;0.00;;;;;;;;;;1736013;28;20211;-66
2022/04/21 01:33:11;;;;;;;0.00;0.00;;;;;;;;;;1738471;28;20209;-66
2022/04/21 01:34:02;;;;;;;0.00;0.00;;;;;;;;;;1738102;28;20202;-66
2022/04/21 01:34:54;;;;;;;0.00;0.00;;;;;;;;;;1734899;28;20264;-66
2022/04/21 01:35:45;;;;;;;0.00;0.00;;;;;;;;;;1734404;28;20652;-66
2022/04/21 01:41:08;;;;;;;0.00;0.00;;;;;;;;;;1738377;28;20705;-66
2022/04/21 01:41:19;;;;;;;0.00;0.00;;;;;;;;;;1736583;28;20226;-66
2022/04/21 01:42:14;;;;;;;0.00;0.00;;;;;;;;;;1739123;28;20243;-66
2022/04/21 01:43:06;;;;;;;0.00;0.00;;;;;;;;;;1738141;28;20662;-65
2022/04/21 01:43:58;;;;;;;0.00;0.00;;;;;;;;;;1736006;28;20208;-67
2022/04/21 01:44:49;;;;;;;0.00;0.00;;;;;;;;;;1738416;28;20631;-66
2022/04/21 01:45:43;;;;;;;0.00;0.00;;;;;;;;;;1734859;28;20226;-66
2022/04/21 01:46:34;;;;;;;0.00;0.00;;;;;;;;;;1737789;28;20238;-66
2022/04/21 01:47:26;;;;;;;0.00;0.00;;;;;;;;;;1739551;28;20782;-66
2022/04/21 01:48:18;;;;;;;0.00;0.00;;;;;;;;;;1738349;28;20203;-66
2022/04/21 01:49:09;;;;;;;0.00;0.00;;;;;;;;;;1737960;28;20203;-66
2022/04/21 01:50:07;;;;;;;0.00;0.00;;;;;;;;;;1737721;28;20669;-66
2022/04/21 01:50:59;;;;;;;0.00;0.00;;;;;;;;;;1733826;28;20242;-66
2022/04/21 01:51:51;;;;;;;0.00;0.00;;;;;;;;;;1738941;28;20202;-66
2022/04/21 01:52:42;;;;;;;0.00;0.00;;;;;;;;;;1737779;28;20207;-66
2022/04/21 01:53:35;;;;;;;0.00;0.00;;;;;;;;;;1739151;28;20221;-67
2022/04/21 01:54:26;;;;;;;0.00;0.00;;;;;;;;;;1738413;28;20210;-66
2022/04/21 01:55:18;;;;;;;0.00;0.00;;;;;;;;;;1737158;28;20206;-66
2022/04/21 01:56:10;;;;;;;0.00;0.00;;;;;;;;;;1736447;28;20242;-67
2022/04/21 01:57:02;;;;;;;0.00;0.00;;;;;;;;;;1738782;28;20262;-66
2022/04/21 01:57:53;;;;;;;0.00;0.00;;;;;;;;;;1738128;28;20310;-66
2022/04/21 01:58:46;;;;;;;0.00;0.00;;;;;;;;;;1738577;28;20213;-66
2022/04/21 01:59:37;;;;;;;0.00;0.00;;;;;;;;;;1738142;28;20230;-66
2022/04/21 02:00:29;;;;;;;0.00;0.00;;;;;;;;;;1735507;28;20519;-67
2022/04/21 02:01:20;;;;;;;0.00;0.00;;;;;;;;;;1738900;28;20214;-66
2022/04/21 02:02:12;;;;;;;0.00;0.00;;;;;;;;;;1738729;28;20877;-66
2022/04/21 02:03:04;;;;;;;0.00;0.00;;;;;;;;;;1736740;28;20210;-66
2022/04/21 02:03:56;;;;;;;0.00;0.00;;;;;;;;;;1735734;28;20243;-66
2022/04/21 02:04:47;;;;;;;0.05;0.05;;;;;;;;;;1738081;28;20214;-66
2022/04/21 02:05:39;;;;;;;0.00;0.00;;;;;;;;;;1736092;28;20314;-66
2022/04/21 02:06:30;;;;;;;0.00;0.00;;;;;;;;;;1738370;28;20203;-66
2022/04/21 02:07:25;;;;;;;0.10;0.10;;;;;;;;;;1737761;28;20195;-66
2022/04/21 02:08:16;;;;;;;0.00;0.00;;;;;;;;;;1737812;28;20260;-66
2022/04/21 02:09:08;;;;;;;0.00;0.00;;;;;;;;;;1738044;28;20653;-66
2022/04/21 02:09:59;;;;;;;0.00;0.00;;;;;;;;;;1736027;28;20221;-66
2022/04/21 02:10:51;;;;;;;0.00;0.00;;;;;;;;;;1736170;28;20390;-66
2022/04/21 02:11:42;;;;;;;0.00;0.00;;;;;;;;;;1738669;28;20203;-67
2022/04/21 02:12:35;;;;;;;0.00;0.00;;;;;;;;;;1738337;28;20203;-66
2022/04/21 02:13:26;;;;;;;0.00;0.00;;;;;;;;;;1738543;28;20214;-66
2022/04/21 02:14:18;;;;;;;0.00;0.00;;;;;;;;;;1737148;28;20207;-67
2022/04/21 02:15:10;;;;;;;0.00;0.00;;;;;;;;;;1736149;28;20207;-67
2022/04/21 02:16:02;;;;;;;0.00;0.00;;;;;;;;;;1736585;28;20234;-67
2022/04/21 02:16:53;;;;;;;0.00;0.00;;;;;;;;;;1739706;28;20239;-67
2022/04/21 02:17:45;;;;;;;0.00;0.00;;;;;;;;;;1739047;28;20240;-67
2022/04/21 02:18:37;;;;;;;0.00;0.00;;;;;;;;;;1739327;28;20234;-67
2022/04/21 02:19:30;;;;;;;0.00;0.00;;;;;;;;;;1737942;28;20217;-67
2022/04/21 02:20:21;;;;;;;0.00;0.00;;;;;;;;;;1735587;28;20218;-66
2022/04/21 02:21:13;;;;;;;0.00;0.00;;;;;;;;;;1738738;28;20218;-66
2022/04/21 02:22:04;;;;;;;0.00;0.00;;;;;;;;;;1736086;28;20214;-66
2022/04/21 02:22:58;;;;;;;0.00;0.00;;;;;;;;;;1738332;28;20223;-67
2022/04/21 02:23:49;;;;;;;0.00;0.00;;;;;;;;;;1739303;28;20207;-66
2022/04/21 02:24:41;;;;;;;0.00;0.00;;;;;;;;;;1738277;28;20286;-66
2022/04/21 02:25:32;;;;;;;0.00;0.00;;;;;;;;;;1734215;28;20239;-66
2022/04/21 02:26:24;;;;;;;0.00;0.00;;;;;;;;;;1737209;28;20913;-66
2022/04/21 02:27:17;;;;;;;0.00;0.00;;;;;;;;;;1738127;28;20637;-66
2022/04/21 02:28:09;;;;;;;0.10;0.10;;;;;;;;;;1738513;28;20207;-67
2022/04/21 02:29:00;;;;;;;0.00;0.00;;;;;;;;;;1738418;28;20519;-66
2022/04/21 02:29:54;;;;;;;0.00;0.00;;;;;;;;;;1737349;28;20199;-66
2022/04/21 02:30:45;;;;;;;0.00;0.00;;;;;;;;;;1737122;28;20342;-66
2022/04/21 02:31:38;;;;;;;0.00;0.00;;;;;;;;;;1738861;28;20195;-66
2022/04/21 02:32:29;;;;;;;0.10;0.10;;;;;;;;;;1738483;28;20256;-66
2022/04/21 02:33:21;;;;;;;0.00;0.00;;;;;;;;;;1738092;28;20198;-66
2022/04/21 02:34:12;;;;;;;0.00;0.00;;;;;;;;;;1737764;28;20276;-66
2022/04/21 02:35:05;;;;;;;0.00;0.00;;;;;;;;;;1737934;28;20226;-67
2022/04/21 02:35:56;;;;;;;0.00;0.00;;;;;;;;;;1737650;28;20273;-66
2022/04/21 02:36:48;;;;;;;0.00;0.00;;;;;;;;;;1738555;28;20752;-67
2022/04/21 02:37:40;;;;;;;0.00;0.00;;;;;;;;;;1754369;22;20198;-62
2022/04/21 02:38:34;;;;;;;0.00;0.00;;;;;;;;;;1742251;28;20221;-63
2022/04/21 02:39:25;;;;;;;0.00;0.00;;;;;;;;;;1737250;28;20203;-63
2022/04/21 02:40:17;;;;;;;0.00;0.00;;;;;;;;;;1735086;28;20680;-63
2022/04/21 02:41:08;;;;;;;0.00;0.00;;;;;;;;;;1738273;28;20226;-63
2022/04/21 02:42:01;;;;;;;0.00;0.00;;;;;;;;;;1740638;28;20209;-63
2022/04/21 02:42:52;;;;;;;0.00;0.00;;;;;;;;;;1738351;28;20206;-63
2022/04/21 02:43:44;;;;;;;0.00;0.00;;;;;;;;;;1739745;28;20251;-62
2022/04/21 02:44:35;;;;;;;0.00;0.00;;;;;;;;;;1738007;28;20203;-63
2022/04/21 02:45:28;;;;;;;0.00;0.00;;;;;;;;;;1732629;28;20227;-63
2022/04/21 02:46:19;;;;;;;0.00;0.00;;;;;;;;;;1738407;28;20214;-62
2022/04/21 02:47:11;;;;;;;0.00;0.00;;;;;;;;;;1735748;28;20572;-64
2022/04/21 02:48:03;;;;;;;0.00;0.00;;;;;;;;;;1740154;28;20219;-63
2022/04/21 02:48:55;;;;;;;0.00;0.00;;;;;;;;;;1735960;28;20760;-63
2022/04/21 02:49:47;;;;;;;0.00;0.00;;;;;;;;;;1743005;28;20703;-62
2022/04/21 02:50:40;;;;;;;0.00;0.00;;;;;;;;;;1736769;28;20313;-65
2022/04/21 02:51:31;;;;;;;0.00;0.00;;;;;;;;;;1736954;28;20203;-63
2022/04/21 02:52:24;;;;;;;0.00;0.00;;;;;;;;;;1736771;28;20233;-64
2022/04/21 02:53:15;;;;;;;0.00;0.00;;;;;;;;;;1737663;28;20207;-63
2022/04/21 02:57:40;;;;;;;0.00;0.00;;;;;;;;;;1737287;28;20382;-63
2022/04/21 02:58:31;;;;;;;0.05;0.05;;;;;;;;;;1738655;28;20704;-63
2022/04/21 02:59:23;;;;;;;0.00;0.00;;;;;;;;;;1739310;28;20230;-63
2022/04/21 03:00:14;;;;;;;0.00;0.00;;;;;;;;;;1739807;28;20242;-63
2022/04/21 03:01:07;;;;;;;0.00;0.00;;;;;;;;;;1738333;28;20238;-62
2022/04/21 03:01:58;;;;;;;0.05;0.05;;;;;;;;;;1739343;28;20210;-63
2022/04/21 03:02:50;;;;;;;0.00;0.00;;;;;;;;;;1743625;28;20203;-63
2022/04/21 03:03:41;;;;;;;0.00;0.00;;;;;;;;;;1738399;28;20203;-62
2022/04/21 03:04:33;;;;;;;0.00;0.00;;;;;;;;;;1739884;28;20218;-62
2022/04/21 03:05:25;;;;;;;0.00;0.00;;;;;;;;;;1734220;28;20207;-62
2022/04/21 03:06:17;;;;;;;0.00;0.00;;;;;;;;;;1739766;28;20707;-64
2022/04/21 03:07:08;;;;;;;0.00;0.00;;;;;;;;;;1737036;28;20290;-63
2022/04/21 03:08:00;;;;;;;0.00;0.00;;;;;;;;;;1739257;28;20699;-63
2022/04/21 03:08:51;;;;;;;0.03;0.03;;;;;;;;;;1737360;28;20257;-63
2022/04/21 03:09:45;;;;;;;0.00;0.00;;;;;;;;;;1738428;28;20586;-64
2022/04/21 03:10:36;;;;;;;0.00;0.00;;;;;;;;;;1737679;28;20254;-64
2022/04/21 03:11:27;;;;;;;0.00;0.00;;;;;;;;;;1738993;28;20297;-63
2022/04/21 03:12:20;;;;;;;0.00;0.00;;;;;;;;;;1737373;28;20211;-63
2022/04/21 03:13:11;;;;;;;0.00;0.00;;;;;;;;;;1738614;28;20207;-63
2022/04/21 03:14:03;;;;;;;0.00;0.00;;;;;;;;;;1737797;28;20203;-63
2022/04/21 03:14:55;;;;;;;0.00;0.00;;;;;;;;;;1739074;28;20526;-63
2022/04/21 03:15:48;;;;;;;0.00;0.00;;;;;;;;;;1732615;28;20262;-62
2022/04/21 03:16:39;;;;;;;0.00;0.00;;;;;;;;;;1735861;28;20739;-62
2022/04/21 03:17:31;;;;;;;0.00;0.00;;;;;;;;;;1736862;28;20213;-63
2022/04/21 03:18:22;;;;;;;0.00;0.00;;;;;;;;;;1738849;28;20238;-63
2022/04/21 03:19:14;;;;;;;0.00;0.00;;;;;;;;;;1738255;28;20203;-63
2022/04/21 03:20:06;;;;;;;0.00;0.00;;;;;;;;;;1738571;28;20211;-63
2022/04/21 03:24:30;;;;;;;0.00;0.00;;;;;;;;;;1737679;28;20238;-64
2022/04/21 03:25:23;;;;;;;0.00;0.00;;;;;;;;;;1734322;28;20644;-63
2022/04/21 03:26:17;;;;;;;0.00;0.00;;;;;;;;;;1739073;28;20207;-63
2022/04/21 03:27:08;;;;;;;0.00;0.00;;;;;;;;;;1740558;28;20246;-62
2022/04/21 03:28:01;;;;;;;0.00;0.00;;;;;;;;;;1740311;28;20222;-65
2022/04/21 03:28:52;;;;;;;0.00;0.00;;;;;;;;;;1736414;28;20507;-62
2022/04/21 03:29:44;;;;;;;0.00;0.00;;;;;;;;;;1739359;28;20672;-65
2022/04/21 03:30:35;;;;;;;0.00;0.00;;;;;;;;;;1733037;28;20364;-63
2022/04/21 03:31:27;;;;;;;0.10;0.10;;;;;;;;;;1740016;28;20290;-61
2022/04/21 03:32:18;;;;;;;0.00;0.00;;;;;;;;;;1737347;28;20580;-62
2022/04/21 03:33:11;;;;;;;0.00;0.00;;;;;;;;;;1738725;28;20203;-63
2022/04/21 03:34:05;;;;;;;0.00;0.00;;;;;;;;;;1737269;28;20557;-62
2022/04/21 03:35:00;;;;;;;0.00;0.00;;;;;;;;;;1738240;28;20238;-65
2022/04/21 03:35:51;;;;;;;0.00;0.00;;;;;;;;;;1734766;28;20234;-62
2022/04/21 03:36:46;;;;;;;0.00;0.00;;;;;;;;;;1745867;28;20655;-64
2022/04/21 03:37:37;;;;;;;0.00;0.00;;;;;;;;;;1740726;28;20208;-61
2022/04/21 03:38:31;;;;;;;0.00;0.00;;;;;;;;;;1759089;28;20209;-62
2022/04/21 03:39:23;;;;;;;0.00;0.00;;;;;;;;;;1752678;28;20205;-63
2022/04/21 03:40:15;;;;;;;0.00;0.00;;;;;;;;;;1750458;28;20207;-62
2022/04/21 03:41:08;;;;;;;0.00;0.00;;;;;;;;;;1750401;28;20391;-63
2022/04/21 03:42:01;;;;;;;0.00;0.00;;;;;;;;;;1752321;28;20228;-62
2022/04/21 03:42:53;;;;;;;0.00;0.00;;;;;;;;;;1756085;28;20578;-63
2022/04/21 03:43:45;;;;;;;0.00;0.00;;;;;;;;;;1755898;28;20696;-62
2022/04/21 03:44:40;;;;;;;0.00;0.00;;;;;;;;;;1751603;28;20198;-63
2022/04/21 03:45:33;;;;;;;0.00;0.00;;;;;;;;;;1748866;28;20230;-64
2022/04/21 03:46:24;;;;;;;0.00;0.00;;;;;;;;;;1750963;28;20212;-64
2022/04/21 03:47:17;;;;;;;0.00;0.00;;;;;;;;;;1752220;28;20251;-65
2022/04/21 03:48:08;;;;;;;0.00;0.00;;;;;;;;;;1751830;28;20564;-64
2022/04/21 03:48:59;;;;;;;0.00;0.00;;;;;;;;;;1752429;28;20213;-63
2022/04/21 03:49:51;;;;;;;0.03;0.03;;;;;;;;;;1757446;28;20205;-62
2022/04/21 03:50:43;;;;;;;0.00;0.00;;;;;;;;;;1751271;28;20248;-62
2022/04/21 03:51:35;;;;;;;0.00;0.00;;;;;;;;;;1752134;28;20293;-64
2022/04/21 03:52:27;;;;;;;0.00;0.00;;;;;;;;;;1751077;28;20205;-63
2022/04/21 03:53:19;;;;;;;0.00;0.00;;;;;;;;;;1752339;28;20308;-63
2022/04/21 03:54:10;;;;;;;0.00;0.00;;;;;;;;;;1751829;28;20231;-64
2022/04/21 03:55:02;;;;;;;0.00;0.00;;;;;;;;;;1752366;28;20198;-62
2022/04/21 03:55:53;;;;;;;0.00;0.00;;;;;;;;;;1749390;28;20233;-63
2022/04/21 03:56:47;;;;;;;0.00;0.00;;;;;;;;;;1752821;28;20243;-63
2022/04/21 03:57:38;;;;;;;0.00;0.00;;;;;;;;;;1752847;28;20197;-64
2022/04/21 03:58:30;;;;;;;0.00;0.00;;;;;;;;;;1751919;28;20271;-62
2022/04/21 03:59:22;;;;;;;0.00;0.00;;;;;;;;;;1751162;28;20216;-62
2022/04/21 04:00:15;;;;;;;0.00;0.00;;;;;;;;;;1750330;28;20201;-62
2022/04/21 04:01:06;;;;;;;0.00;0.00;;;;;;;;;;1750361;28;20707;-62
2022/04/21 04:02:02;;;;;;;0.00;0.00;;;;;;;;;;1752410;28;20301;-62
2022/04/21 04:02:54;;;;;;;0.00;0.00;;;;;;;;;;1752317;28;20197;-62
2022/04/21 04:03:46;;;;;;;0.10;0.10;;;;;;;;;;1752238;28;20236;-61
2022/04/21 04:04:38;;;;;;;0.00;0.00;;;;;;;;;;1750889;28;20575;-62
2022/04/21 04:05:30;;;;;;;0.00;0.00;;;;;;;;;;1749159;28;20233;-62
2022/04/21 04:11:01;;;;;;;0.00;0.00;;;;;;;;;;1747215;28;20775;-62
2022/04/21 04:11:54;;;;;;;0.00;0.00;;;;;;;;;;1752825;28;20209;-63
2022/04/21 04:12:46;;;;;;;0.00;0.00;;;;;;;;;;1750988;28;20203;-62
2022/04/21 04:13:37;;;;;;;0.00;0.00;;;;;;;;;;1752347;28;20224;-61
2022/04/21 04:14:30;;;;;;;0.00;0.00;;;;;;;;;;1754498;28;20209;-63
2022/04/21 04:15:21;;;;;;;0.10;0.10;;;;;;;;;;1753379;28;20213;-65
2022/04/21 04:16:14;;;;;;;0.00;0.00;;;;;;;;;;1751926;28;20200;-65
2022/04/21 04:17:06;;;;;;;0.00;0.00;;;;;;;;;;1751110;28;20294;-64
2022/04/21 04:17:58;;;;;;;0.10;0.10;;;;;;;;;;1752118;28;20237;-62
2022/04/21 04:18:49;;;;;;;0.00;0.00;;;;;;;;;;1751863;28;20848;-62
2022/04/21 04:19:41;;;;;;;0.00;0.00;;;;;;;;;;1751771;28;20198;-61
2022/04/21 04:20:32;;;;;;;0.00;0.00;;;;;;;;;;1749131;28;20603;-63
2022/04/21 04:21:24;;;;;;;0.00;0.00;;;;;;;;;;1752557;28;20201;-62
2022/04/21 04:22:16;;;;;;;0.00;0.00;;;;;;;;;;1752013;28;20209;-62
2022/04/21 04:23:09;;;;;;;0.00;0.00;;;;;;;;;;1751327;28;20558;-61
2022/04/21 04:24:00;;;;;;;0.00;0.00;;;;;;;;;;1752788;28;20248;-63
2022/04/21 04:24:54;;;;;;;0.00;0.00;;;;;;;;;;1751810;28;20616;-62
2022/04/21 04:25:46;;;;;;;0.00;0.00;;;;;;;;;;1748522;28;20619;-62
2022/04/21 04:26:38;;;;;;;0.00;0.00;;;;;;;;;;1752390;28;20253;-62
2022/04/21 04:27:30;;;;;;;0.00;0.00;;;;;;;;;;1751311;28;20508;-64
2022/04/21 04:28:22;;;;;;;0.03;0.03;;;;;;;;;;1752751;28;20213;-61
2022/04/21 04:29:14;;;;;;;0.00;0.00;;;;;;;;;;1749729;28;20205;-61
2022/04/21 04:30:07;;;;;;;0.00;0.00;;;;;;;;;;1752258;28;20312;-62
2022/04/21 04:30:58;;;;;;;0.10;0.10;;;;;;;;;;1748787;28;20272;-62
2022/04/21 04:31:51;;;;;;;0.00;0.00;;;;;;;;;;1752654;28;20229;-64
2022/04/21 04:32:42;;;;;;;0.00;0.00;;;;;;;;;;1750814;28;20497;-62
2022/04/21 04:33:34;;;;;;;0.00;0.00;;;;;;;;;;1752559;28;20198;-62
2022/04/21 04:34:26;;;;;;;0.00;0.00;;;;;;;;;;1751620;28;20567;-61
2022/04/21 04:35:18;;;;;;;0.00;0.00;;;;;;;;;;1749281;28;20722;-61
2022/04/21 04:36:10;;;;;;;0.00;0.00;;;;;;;;;;1750480;28;20831;-61
2022/04/21 04:37:02;;;;;;;0.00;0.00;;;;;;;;;;1751512;28;20205;-62
2022/04/21 04:37:54;;;;;;;0.10;0.10;;;;;;;;;;1750853;28;20229;-62
2022/04/21 04:38:48;;;;;;;0.10;0.10;;;;;;;;;;1750772;28;20255;-62
2022/04/21 04:39:39;;;;;;;0.00;0.00;;;;;;;;;;1752058;28;20225;-63
2022/04/21 04:40:32;;;;;;;0.00;0.00;;;;;;;;;;1749763;28;20286;-63
2022/04/21 04:42:34;;;;;;;0.10;0.10;;;;;;;;;;1751555;28;20554;-61
2022/04/21 04:43:27;;;;;;;0.00;0.00;;;;;;;;;;1752141;28;20206;-61
2022/04/21 04:44:19;;;;;;;0.00;0.00;;;;;;;;;;1750693;28;20623;-61
2022/04/21 04:46:36;;;;;;;0.00;0.00;;;;;;;;;;1750829;28;20676;-61
2022/04/21 04:47:27;;;;;;;0.00;0.00;;;;;;;;;;1750306;28;20560;-62
2022/04/21 04:48:19;;;;;;;0.00;0.00;;;;;;;;;;1752067;28;20201;-63
2022/04/21 04:49:11;;;;;;;0.00;0.00;;;;;;;;;;1750807;28;20206;-62
2022/04/21 04:50:03;;;;;;;0.00;0.00;;;;;;;;;;1752366;28;20209;-63
2022/04/21 04:50:54;;;;;;;0.00;0.00;;;;;;;;;;1748535;28;20233;-61
2022/04/21 04:51:47;;;;;;;0.00;0.00;;;;;;;;;;1752427;28;20201;-61
2022/04/21 04:52:38;;;;;;;0.00;0.00;;;;;;;;;;1752035;28;20202;-61
2022/04/21 04:53:30;;;;;;;0.00;0.00;;;;;;;;;;1751720;28;20462;-61
2022/04/21 04:54:21;;;;;;;0.00;0.00;;;;;;;;;;1750367;28;20205;-63
2022/04/21 04:55:13;;;;;;;0.00;0.00;;;;;;;;;;1754202;28;20457;-63
2022/04/21 04:56:05;;;;;;;0.00;0.00;;;;;;;;;;1750723;28;20253;-62
2022/04/21 04:56:57;;;;;;;0.00;0.00;;;;;;;;;;1756093;28;20196;-61
2022/04/21 04:57:50;;;;;;;0.00;0.00;;;;;;;;;;1751148;28;20217;-63
2022/04/21 04:58:43;;;;;;;0.00;0.00;;;;;;;;;;1756037;28;20228;-61
2022/04/21 04:59:34;;;;;;;0.00;0.00;;;;;;;;;;1750410;28;20205;-63
2022/04/21 05:00:28;;;;;;;0.00;0.00;;;;;;;;;;1748920;28;20202;-61
2022/04/21 05:01:26;;;;;;;0.00;0.00;;;;;;;;;;1751138;28;20204;-62
2022/04/21 05:02:20;;;;;;;0.00;0.00;;;;;;;;;;1751907;28;20308;-63
2022/04/21 05:03:12;;;;;;;0.00;0.00;;;;;;;;;;1752243;28;20237;-62
2022/04/21 05:04:05;;;;;;;0.20;0.20;;;;;;;;;;1751739;28;20201;-63
2022/04/21 05:04:56;;;;;;;0.00;0.00;;;;;;;;;;1752008;28;20209;-62
2022/04/21 05:05:49;;;;;;;0.10;0.10;;;;;;;;;;1747851;28;20241;-63
2022/04/21 05:06:41;;;;;;;0.00;0.00;;;;;;;;;;1748853;28;20201;-62
2022/04/21 05:07:35;;;;;;;0.00;0.00;;;;;;;;;;1750767;28;20292;-62
2022/04/21 05:08:26;;;;;;;0.00;0.00;;;;;;;;;;1751950;28;20201;-63
2022/04/21 05:09:20;;;;;;;0.00;0.00;;;;;;;;;;1751236;28;20713;-63
2022/04/21 05:10:11;;;;;;;0.00;0.00;;;;;;;;;;1748265;28;20214;-62
2022/04/21 05:11:03;;;;;;;0.00;0.00;;;;;;;;;;1751509;28;20343;-62
2022/04/21 05:11:55;;;;;;;0.00;0.00;;;;;;;;;;1751584;28;20206;-62
2022/04/21 05:12:47;;;;;;;0.10;0.10;;;;;;;;;;1749777;28;20589;-63
2022/04/21 05:13:41;;;;;;;0.00;0.00;;;;;;;;;;1752123;28;20198;-62
2022/04/21 05:14:33;;;;;;;0.00;0.00;;;;;;;;;;1755325;28;20208;-62
2022/04/21 05:15:25;;;;;;;0.03;0.03;;;;;;;;;;1749005;28;20675;-62
2022/04/21 05:16:17;;;;;;;0.00;0.00;;;;;;;;;;1752478;28;20202;-64
2022/04/21 05:17:08;;;;;;;0.00;0.00;;;;;;;;;;1755407;28;20209;-62
2022/04/21 05:18:01;;;;;;;0.10;0.10;;;;;;;;;;1751375;28;20252;-63
2022/04/21 05:18:53;;;;;;;0.10;0.10;;;;;;;;;;1751039;28;20584;-62
2022/04/21 05:19:46;;;;;;;0.00;0.00;;;;;;;;;;1751270;28;20229;-61
2022/04/21 05:20:37;;;;;;;0.00;0.00;;;;;;;;;;1749103;28;20264;-62
2022/04/21 05:21:30;;;;;;;0.00;0.00;;;;;;;;;;1751329;28;20198;-61
2022/04/21 05:22:26;;;;;;;0.10;0.10;;;;;;;;;;1751871;28;20220;-61
2022/04/21 05:23:18;;;;;;;0.00;0.00;;;;;;;;;;1752136;28;20217;-61
2022/04/21 05:24:10;;;;;;;0.00;0.00;;;;;;;;;;1751279;28;20205;-62
2022/04/21 05:25:04;;;;;;;0.00;0.00;;;;;;;;;;1751914;28;20633;-61
2022/04/21 05:25:55;;;;;;;0.08;0.08;;;;;;;;;;1748578;28;20580;-61
2022/04/21 05:26:48;;;;;;;0.00;0.00;;;;;;;;;;1752477;28;20198;-62
2022/04/21 05:27:39;;;;;;;0.00;0.00;;;;;;;;;;1750972;28;20208;-61
2022/04/21 05:28:32;;;;;;;0.00;0.00;;;;;;;;;;1752467;28;20201;-61
2022/04/21 05:31:46;;;;;;;0.10;0.10;;;;;;;;;;1752394;28;20185;-62
2022/04/21 05:32:40;;;;;;;0.00;0.00;;;;;;;;;;1750062;28;20206;-61
2022/04/21 05:33:35;;;;;;;0.00;0.00;;;;;;;;;;1752232;28;20254;-60
2022/04/21 05:34:28;;;;;;;0.03;0.03;;;;;;;;;;1752310;28;20251;-62
2022/04/21 05:35:19;;;;;;;0.00;0.00;;;;;;;;;;1749906;28;20232;-62
2022/04/21 05:36:12;;;;;;;0.00;0.00;;;;;;;;;;1752949;28;20220;-62
2022/04/21 05:37:03;;;;;;;0.00;0.00;;;;;;;;;;1756017;28;20605;-61
2022/04/21 05:37:55;;;;;;;0.00;0.00;;;;;;;;;;1751275;28;20233;-62